sensor_id;sensor_type;location;lat;lon;timestamp;temperature;humidity
81311;DHT22;70779;52.506;5.492;2023-10-19T04:45:19;14.70;74.60
81311;DHT22;70779;52.506;5.492;2023-10-19T04:47:49;14.80;74.60
81311;DHT22;70779;52.506;5.492;2023-10-19T04:50:17;14.80;74.60
81311;DHT22;70779;52.506;5.492;2023-10-19T04:52:44;14.80;74.50
81311;DHT22;70779;52.506;5.492;2023-10-19T04:55:10;14.80;74.40
81311;DHT22;70779;52.506;5.492;2023-10-19T04:57:36;14.80;74.20
81311;DHT22;70779;52.506;5.492;2023-10-19T05:00:03;14.80;74.20
81311;DHT22;70779;52.506;5.492;2023-10-19T05:02:32;14.70;74.30
81311;DHT22;70779;52.506;5.492;2023-10-19T05:04:58;14.60;74.40
81311;DHT22;70779;52.506;5.492;2023-10-19T05:07:24;14.60;74.50
81311;DHT22;70779;52.506;5.492;2023-10-19T05:09:50;14.60;74.60
81311;DHT22;70779;52.506;5.492;2023-10-19T05:12:16;14.50;74.70
81311;DHT22;70779;52.506;5.492;2023-10-19T05:14:43;14.50;74.70
81311;DHT22;70779;52.506;5.492;2023-10-19T05:17:09;14.50;74.70
81311;DHT22;70779;52.506;5.492;2023-10-19T05:19:36;14.50;74.80
81311;DHT22;70779;52.506;5.492;2023-10-19T05:22:05;14.50;74.80
81311;DHT22;70779;52.506;5.492;2023-10-19T05:24:32;14.40;74.80
81311;DHT22;70779;52.506;5.492;2023-10-19T05:26:58;14.40;74.80
81311;DHT22;70779;52.506;5.492;2023-10-19T05:29:24;14.40;74.90
81311;DHT22;70779;52.506;5.492;2023-10-19T05:31:51;14.40;75.00
81311;DHT22;70779;52.506;5.492;2023-10-19T05:34:21;14.40;75.10
81311;DHT22;70779;52.506;5.492;2023-10-19T05:36:47;14.50;75.20
81311;DHT22;70779;52.506;5.492;2023-10-19T05:39:15;14.50;75.20
81311;DHT22;70779;52.506;5.492;2023-10-19T05:41:41;14.60;75.20
81311;DHT22;70779;52.506;5.492;2023-10-19T05:44:08;14.60;75.10
81311;DHT22;70779;52.506;5.492;2023-10-19T05:46:35;14.70;75.10
81311;DHT22;70779;52.506;5.492;2023-10-19T05:49:02;14.70;75.00
81311;DHT22;70779;52.506;5.492;2023-10-19T05:51:30;14.80;75.00
81311;DHT22;70779;52.506;5.492;2023-10-19T05:53:56;14.80;75.00
81311;DHT22;70779;52.506;5.492;2023-10-19T05:56:28;14.90;74.90
81311;DHT22;70779;52.506;5.492;2023-10-19T05:58:54;14.90;74.90
81311;DHT22;70779;52.506;5.492;2023-10-19T06:01:21;15.00;74.70
81311;DHT22;70779;52.506;5.492;2023-10-19T06:03:48;15.00;74.70
81311;DHT22;70779;52.506;5.492;2023-10-19T06:06:14;15.00;74.70
81311;DHT22;70779;52.506;5.492;2023-10-19T06:08:41;15.10;74.60
81311;DHT22;70779;52.506;5.492;2023-10-19T06:11:07;15.20;74.60
81311;DHT22;70779;52.506;5.492;2023-10-19T06:13:33;15.20;74.60
81311;DHT22;70779;52.506;5.492;2023-10-19T06:15:59;15.20;74.50
81311;DHT22;70779;52.506;5.492;2023-10-19T06:18:25;15.30;74.50
81311;DHT22;70779;52.506;5.492;2023-10-19T06:20:51;15.30;74.50
81311;DHT22;70779;52.506;5.492;2023-10-19T06:23:20;15.40;74.40
81311;DHT22;70779;52.506;5.492;2023-10-19T06:25:47;15.40;74.50
81311;DHT22;70779;52.506;5.492;2023-10-19T06:28:13;15.50;74.30
81311;DHT22;70779;52.506;5.492;2023-10-19T06:30:39;15.50;74.30
81311;DHT22;70779;52.506;5.492;2023-10-19T06:33:06;15.50;74.30
81311;DHT22;70779;52.506;5.492;2023-10-19T06:35:33;15.50;74.30
81311;DHT22;70779;52.506;5.492;2023-10-19T06:38:00;15.60;74.20
81311;DHT22;70779;52.506;5.492;2023-10-19T06:40:27;15.60;74.30
81311;DHT22;70779;52.506;5.492;2023-10-19T06:42:57;15.60;74.30
81311;DHT22;70779;52.506;5.492;2023-10-19T06:45:24;15.60;74.40
81311;DHT22;70779;52.506;5.492;2023-10-19T06:47:52;15.60;74.30
81311;DHT22;70779;52.506;5.492;2023-10-19T06:50:20;15.60;74.20
81311;DHT22;70779;52.506;5.492;2023-10-19T06:52:47;15.60;74.30
81311;DHT22;70779;52.506;5.492;2023-10-19T06:55:17;15.60;74.30
81311;DHT22;70779;52.506;5.492;2023-10-19T06:57:48;15.60;74.30
81311;DHT22;70779;52.506;5.492;2023-10-19T07:00:16;15.70;74.20
81311;DHT22;70779;52.506;5.492;2023-10-19T07:02:46;15.70;74.30
81311;DHT22;70779;52.506;5.492;2023-10-19T07:05:13;15.80;74.30
81311;DHT22;70779;52.506;5.492;2023-10-19T07:07:45;15.80;74.20
81311;DHT22;70779;52.506;5.492;2023-10-19T07:10:13;15.80;74.30
81311;DHT22;70779;52.506;5.492;2023-10-19T07:12:41;15.80;74.40
81311;DHT22;70779;52.506;5.492;2023-10-19T07:15:08;15.80;74.30
81311;DHT22;70779;52.506;5.492;2023-10-19T07:17:40;15.80;74.30
81311;DHT22;70779;52.506;5.492;2023-10-19T07:20:08;15.90;74.10
81311;DHT22;70779;52.506;5.492;2023-10-19T07:22:48;15.90;74.10
81311;DHT22;70779;52.506;5.492;2023-10-19T07:25:14;16.00;74.10
81311;DHT22;70779;52.506;5.492;2023-10-19T07:27:40;16.00;74.10
81311;DHT22;70779;52.506;5.492;2023-10-19T07:30:08;16.00;74.30
81311;DHT22;70779;52.506;5.492;2023-10-19T07:32:35;16.00;74.20
81311;DHT22;70779;52.506;5.492;2023-10-19T07:35:02;16.00;74.20
81311;DHT22;70779;52.506;5.492;2023-10-19T07:37:28;16.00;74.10
81311;DHT22;70779;52.506;5.492;2023-10-19T07:39:55;16.00;74.30
81311;DHT22;70779;52.506;5.492;2023-10-19T07:42:23;16.00;74.20
81311;DHT22;70779;52.506;5.492;2023-10-19T07:44:49;16.10;74.20
81311;DHT22;70779;52.506;5.492;2023-10-19T07:47:16;16.10;74.10
81311;DHT22;70779;52.506;5.492;2023-10-19T07:49:42;16.10;74.10
81311;DHT22;70779;52.506;5.492;2023-10-19T07:52:09;16.10;74.10
81311;DHT22;70779;52.506;5.492;2023-10-19T07:54:38;16.20;74.20
81311;DHT22;70779;52.506;5.492;2023-10-19T07:57:04;16.20;74.20
81311;DHT22;70779;52.506;5.492;2023-10-19T07:59:33;16.30;74.10
81311;DHT22;70779;52.506;5.492;2023-10-19T08:02:01;16.30;74.00
81311;DHT22;70779;52.506;5.492;2023-10-19T08:04:30;16.40;74.10
81311;DHT22;70779;52.506;5.492;2023-10-19T08:06:59;16.40;74.00
81311;DHT22;70779;52.506;5.492;2023-10-19T08:09:26;16.40;74.10
81311;DHT22;70779;52.506;5.492;2023-10-19T08:11:57;16.40;74.00
81311;DHT22;70779;52.506;5.492;2023-10-19T08:14:25;16.40;74.00
81311;DHT22;70779;52.506;5.492;2023-10-19T08:16:52;16.50;74.10
81311;DHT22;70779;52.506;5.492;2023-10-19T08:19:19;16.50;74.00
81311;DHT22;70779;52.506;5.492;2023-10-19T08:21:45;16.60;73.90
81311;DHT22;70779;52.506;5.492;2023-10-19T08:24:11;16.60;73.90
81311;DHT22;70779;52.506;5.492;2023-10-19T08:26:44;16.70;73.90
81311;DHT22;70779;52.506;5.492;2023-10-19T08:29:13;16.70;73.80
81311;DHT22;70779;52.506;5.492;2023-10-19T08:31:43;16.80;73.90
81311;DHT22;70779;52.506;5.492;2023-10-19T08:34:13;16.80;73.70
81311;DHT22;70779;52.506;5.492;2023-10-19T08:36:39;16.80;73.60
81311;DHT22;70779;52.506;5.492;2023-10-19T08:39:09;16.80;73.70
81311;DHT22;70779;52.506;5.492;2023-10-19T08:41:38;16.90;73.70
81311;DHT22;70779;52.506;5.492;2023-10-19T08:44:06;16.90;73.70
81311;DHT22;70779;52.506;5.492;2023-10-19T08:46:44;16.90;73.60
81311;DHT22;70779;52.506;5.492;2023-10-19T08:49:14;17.00;73.60
81311;DHT22;70779;52.506;5.492;2023-10-19T08:51:44;17.00;73.60
81311;DHT22;70779;52.506;5.492;2023-10-19T08:54:12;17.00;73.50
81311;DHT22;70779;52.506;5.492;2023-10-19T08:56:42;17.00;73.60
81311;DHT22;70779;52.506;5.492;2023-10-19T08:59:08;17.10;73.50
81311;DHT22;70779;52.506;5.492;2023-10-19T09:01:38;17.10;73.50
81311;DHT22;70779;52.506;5.492;2023-10-19T09:04:04;17.20;73.50
81311;DHT22;70779;52.506;5.492;2023-10-19T09:06:35;17.20;73.40
81311;DHT22;70779;52.506;5.492;2023-10-19T09:09:13;17.20;73.40
81311;DHT22;70779;52.506;5.492;2023-10-19T09:11:46;17.30;73.30
81311;DHT22;70779;52.506;5.492;2023-10-19T09:14:13;17.30;73.20
81311;DHT22;70779;52.506;5.492;2023-10-19T09:16:56;17.40;73.30
81311;DHT22;70779;52.506;5.492;2023-10-19T09:19:36;17.40;73.20
81311;DHT22;70779;52.506;5.492;2023-10-19T09:22:03;17.50;73.20
81311;DHT22;70779;52.506;5.492;2023-10-19T09:24:55;17.50;73.20
81311;DHT22;70779;52.506;5.492;2023-10-19T09:27:22;17.50;73.10
81311;DHT22;70779;52.506;5.492;2023-10-19T09:29:49;17.50;73.20
81311;DHT22;70779;52.506;5.492;2023-10-19T09:32:17;17.50;73.10
81311;DHT22;70779;52.506;5.492;2023-10-19T09:34:44;17.60;73.10
81311;DHT22;70779;52.506;5.492;2023-10-19T09:37:11;17.60;73.20
81311;DHT22;70779;52.506;5.492;2023-10-19T09:39:37;17.80;73.00
81311;DHT22;70779;52.506;5.492;2023-10-19T09:42:10;17.80;73.10
81311;DHT22;70779;52.506;5.492;2023-10-19T09:44:44;18.00;72.90
81311;DHT22;70779;52.506;5.492;2023-10-19T09:47:13;18.00;72.80
81311;DHT22;70779;52.506;5.492;2023-10-19T09:49:41;18.00;72.80
81311;DHT22;70779;52.506;5.492;2023-10-19T09:52:09;18.00;72.80
81311;DHT22;70779;52.506;5.492;2023-10-19T09:57:36;18.20;72.60
81311;DHT22;70779;52.506;5.492;2023-10-19T10:00:04;18.30;72.50
81311;DHT22;70779;52.506;5.492;2023-10-19T10:02:43;18.30;72.60
81311;DHT22;70779;52.506;5.492;2023-10-19T10:10:45;18.50;72.50
81311;DHT22;70779;52.506;5.492;2023-10-19T10:15:54;18.70;72.40
81311;DHT22;70779;52.506;5.492;2023-10-19T10:18:24;18.80;72.30
81311;DHT22;70779;52.506;5.492;2023-10-19T10:21:39;18.90;72.00
81311;DHT22;70779;52.506;5.492;2023-10-19T10:24:03;18.90;71.70
81311;DHT22;70779;52.506;5.492;2023-10-19T10:26:30;18.90;71.80
81311;DHT22;70779;52.506;5.492;2023-10-19T10:29:22;19.00;71.90
81311;DHT22;70779;52.506;5.492;2023-10-19T10:31:52;19.00;71.90
81311;DHT22;70779;52.506;5.492;2023-10-19T10:37:07;19.20;71.90
81311;DHT22;70779;52.506;5.492;2023-10-19T10:39:34;19.20;71.60
81311;DHT22;70779;52.506;5.492;2023-10-19T10:42:04;19.30;71.70
81311;DHT22;70779;52.506;5.492;2023-10-19T10:44:42;19.30;71.50
81311;DHT22;70779;52.506;5.492;2023-10-19T10:47:20;19.30;71.60
81311;DHT22;70779;52.506;5.492;2023-10-19T10:50:00;19.40;71.60
81311;DHT22;70779;52.506;5.492;2023-10-19T10:52:28;19.40;71.60
81311;DHT22;70779;52.506;5.492;2023-10-19T10:54:56;19.50;71.50
81311;DHT22;70779;52.506;5.492;2023-10-19T10:57:22;19.50;71.50
81311;DHT22;70779;52.506;5.492;2023-10-19T11:00:01;19.50;71.50
81311;DHT22;70779;52.506;5.492;2023-10-19T11:02:29;19.50;71.50
81311;DHT22;70779;52.506;5.492;2023-10-19T11:04:55;19.50;71.60
81311;DHT22;70779;52.506;5.492;2023-10-19T11:07:22;19.50;71.70
81311;DHT22;70779;52.506;5.492;2023-10-19T11:09:48;19.50;71.80
81311;DHT22;70779;52.506;5.492;2023-10-19T11:12:14;19.50;71.70
81311;DHT22;70779;52.506;5.492;2023-10-19T11:14:55;19.50;71.60
81311;DHT22;70779;52.506;5.492;2023-10-19T11:17:21;19.50;71.30
81311;DHT22;70779;52.506;5.492;2023-10-19T11:19:55;19.40;71.40
81311;DHT22;70779;52.506;5.492;2023-10-19T11:22:24;19.30;71.80
81311;DHT22;70779;52.506;5.492;2023-10-19T11:24:55;19.20;71.80
81311;DHT22;70779;52.506;5.492;2023-10-19T11:27:26;19.10;72.20
81311;DHT22;70779;52.506;5.492;2023-10-19T11:29:59;19.10;72.30
81311;DHT22;70779;52.506;5.492;2023-10-19T11:32:36;19.00;72.30
81311;DHT22;70779;52.506;5.492;2023-10-19T11:35:06;19.00;72.40
81311;DHT22;70779;52.506;5.492;2023-10-19T11:37:49;18.90;72.50
81311;DHT22;70779;52.506;5.492;2023-10-19T11:40:15;18.80;72.90
81311;DHT22;70779;52.506;5.492;2023-10-19T11:42:42;18.70;73.10
81311;DHT22;70779;52.506;5.492;2023-10-19T11:45:09;18.60;73.30
81311;DHT22;70779;52.506;5.492;2023-10-19T11:47:37;18.60;73.50
81311;DHT22;70779;52.506;5.492;2023-10-19T11:50:04;18.60;73.70
81311;DHT22;70779;52.506;5.492;2023-10-19T11:52:31;18.70;73.60
81311;DHT22;70779;52.506;5.492;2023-10-19T11:54:57;18.70;73.50
81311;DHT22;70779;52.506;5.492;2023-10-19T11:57:24;18.60;73.70
81311;DHT22;70779;52.506;5.492;2023-10-19T11:59:51;18.60;73.90
81311;DHT22;70779;52.506;5.492;2023-10-19T12:02:20;18.60;74.30
81311;DHT22;70779;52.506;5.492;2023-10-19T12:04:47;18.70;74.40
81311;DHT22;70779;52.506;5.492;2023-10-19T12:07:13;18.80;74.40
81311;DHT22;70779;52.506;5.492;2023-10-19T12:09:39;18.80;74.00
81311;DHT22;70779;52.506;5.492;2023-10-19T12:12:08;18.90;73.80
81311;DHT22;70779;52.506;5.492;2023-10-19T12:14:37;19.00;73.70
81311;DHT22;70779;52.506;5.492;2023-10-19T12:17:04;19.10;73.60
81311;DHT22;70779;52.506;5.492;2023-10-19T12:19:33;19.10;73.60
81311;DHT22;70779;52.506;5.492;2023-10-19T12:22:00;19.20;73.40
81311;DHT22;70779;52.506;5.492;2023-10-19T12:24:28;19.20;73.40
81311;DHT22;70779;52.506;5.492;2023-10-19T12:26:55;19.20;73.00
81311;DHT22;70779;52.506;5.492;2023-10-19T12:29:22;19.20;72.90
81311;DHT22;70779;52.506;5.492;2023-10-19T12:31:48;19.20;73.10
81311;DHT22;70779;52.506;5.492;2023-10-19T12:34:14;19.20;73.10
81311;DHT22;70779;52.506;5.492;2023-10-19T12:36:41;19.20;73.00
81311;DHT22;70779;52.506;5.492;2023-10-19T12:39:08;19.30;73.00
81311;DHT22;70779;52.506;5.492;2023-10-19T12:41:35;19.30;72.90
81311;DHT22;70779;52.506;5.492;2023-10-19T12:44:01;19.40;72.80
81311;DHT22;70779;52.506;5.492;2023-10-19T12:46:34;19.50;72.80
81311;DHT22;70779;52.506;5.492;2023-10-19T12:49:05;19.70;72.50
81311;DHT22;70779;52.506;5.492;2023-10-19T12:51:34;19.80;72.30
81311;DHT22;70779;52.506;5.492;2023-10-19T12:54:00;19.90;71.70
81311;DHT22;70779;52.506;5.492;2023-10-19T12:56:29;19.90;71.40
81311;DHT22;70779;52.506;5.492;2023-10-19T12:58:59;19.90;71.20
81311;DHT22;70779;52.506;5.492;2023-10-19T13:01:25;19.90;71.40
81311;DHT22;70779;52.506;5.492;2023-10-19T13:03:53;19.70;71.30
81311;DHT22;70779;52.506;5.492;2023-10-19T13:06:20;19.70;71.30
81311;DHT22;70779;52.506;5.492;2023-10-19T13:08:46;19.70;71.60
81311;DHT22;70779;52.506;5.492;2023-10-19T13:11:12;19.70;72.00
81311;DHT22;70779;52.506;5.492;2023-10-19T13:13:42;19.60;72.10
81311;DHT22;70779;52.506;5.492;2023-10-19T13:16:08;19.70;72.00
81311;DHT22;70779;52.506;5.492;2023-10-19T13:18:37;19.70;72.00
81311;DHT22;70779;52.506;5.492;2023-10-19T13:21:06;19.70;71.90
81311;DHT22;70779;52.506;5.492;2023-10-19T13:23:35;19.70;71.50
81311;DHT22;70779;52.506;5.492;2023-10-19T13:26:02;19.70;71.50
81311;DHT22;70779;52.506;5.492;2023-10-19T13:28:45;19.80;71.50
81311;DHT22;70779;52.506;5.492;2023-10-19T13:31:12;19.80;71.40
81311;DHT22;70779;52.506;5.492;2023-10-19T13:33:41;19.90;71.30
81311;DHT22;70779;52.506;5.492;2023-10-19T13:36:11;19.80;71.50
81311;DHT22;70779;52.506;5.492;2023-10-19T13:38:38;19.80;71.80
81311;DHT22;70779;52.506;5.492;2023-10-19T13:41:05;19.90;71.60
81311;DHT22;70779;52.506;5.492;2023-10-19T13:43:40;19.90;71.30
81311;DHT22;70779;52.506;5.492;2023-10-19T13:46:08;19.90;71.20
81311;DHT22;70779;52.506;5.492;2023-10-19T13:48:34;19.80;71.50
81311;DHT22;70779;52.506;5.492;2023-10-19T13:51:00;19.80;71.50
81311;DHT22;70779;52.506;5.492;2023-10-19T13:53:26;19.70;71.80
81311;DHT22;70779;52.506;5.492;2023-10-19T13:55:53;19.70;71.70
81311;DHT22;70779;52.506;5.492;2023-10-19T13:58:19;19.70;71.60
81311;DHT22;70779;52.506;5.492;2023-10-19T14:00:46;19.70;71.70
81311;DHT22;70779;52.506;5.492;2023-10-19T14:03:13;19.60;71.70
81311;DHT22;70779;52.506;5.492;2023-10-19T14:05:42;19.50;72.00
81311;DHT22;70779;52.506;5.492;2023-10-19T14:08:09;19.50;72.10
81311;DHT22;70779;52.506;5.492;2023-10-19T14:10:36;19.40;72.40
81311;DHT22;70779;52.506;5.492;2023-10-19T14:13:02;19.30;72.70
81311;DHT22;70779;52.506;5.492;2023-10-19T14:15:28;19.20;73.00
81311;DHT22;70779;52.506;5.492;2023-10-19T14:17:56;19.20;73.20
81311;DHT22;70779;52.506;5.492;2023-10-19T14:20:27;19.20;73.30
81311;DHT22;70779;52.506;5.492;2023-10-19T14:22:53;19.20;73.50
81311;DHT22;70779;52.506;5.492;2023-10-19T14:25:20;19.20;73.50
81311;DHT22;70779;52.506;5.492;2023-10-19T14:27:49;19.20;73.50
81311;DHT22;70779;52.506;5.492;2023-10-19T14:30:17;19.10;73.60
81311;DHT22;70779;52.506;5.492;2023-10-19T14:32:45;19.10;73.50
81311;DHT22;70779;52.506;5.492;2023-10-19T14:35:16;19.00;73.70
81311;DHT22;70779;52.506;5.492;2023-10-19T14:37:44;19.00;73.80
81311;DHT22;70779;52.506;5.492;2023-10-19T14:40:19;19.00;73.90
81311;DHT22;70779;52.506;5.492;2023-10-19T14:42:49;19.00;73.90
81311;DHT22;70779;52.506;5.492;2023-10-19T14:45:20;18.90;74.00
81311;DHT22;70779;52.506;5.492;2023-10-19T14:47:48;18.90;74.10
81311;DHT22;70779;52.506;5.492;2023-10-19T14:50:15;18.80;74.30
81311;DHT22;70779;52.506;5.492;2023-10-19T14:52:42;18.80;74.30
81311;DHT22;70779;52.506;5.492;2023-10-19T14:55:09;18.80;74.30
81311;DHT22;70779;52.506;5.492;2023-10-19T14:57:37;18.80;74.20
81311;DHT22;70779;52.506;5.492;2023-10-19T15:00:05;18.80;74.40
81311;DHT22;70779;52.506;5.492;2023-10-19T15:02:54;18.70;74.60
81311;DHT22;70779;52.506;5.492;2023-10-19T15:05:22;18.70;74.70
81311;DHT22;70779;52.506;5.492;2023-10-19T15:07:50;18.70;74.70
81311;DHT22;70779;52.506;5.492;2023-10-19T15:10:24;18.70;74.70
81311;DHT22;70779;52.506;5.492;2023-10-19T15:12:52;18.70;74.70
81311;DHT22;70779;52.506;5.492;2023-10-19T15:15:18;18.60;74.90
81311;DHT22;70779;52.506;5.492;2023-10-19T15:17:44;18.60;74.90
81311;DHT22;70779;52.506;5.492;2023-10-19T15:20:12;18.60;74.90
81311;DHT22;70779;52.506;5.492;2023-10-19T15:22:41;18.60;75.00
81311;DHT22;70779;52.506;5.492;2023-10-19T15:25:08;18.60;75.10
81311;DHT22;70779;52.506;5.492;2023-10-19T15:27:37;18.50;75.20
81311;DHT22;70779;52.506;5.492;2023-10-19T15:30:05;18.50;75.30
81311;DHT22;70779;52.506;5.492;2023-10-19T15:32:32;18.50;75.40
81311;DHT22;70779;52.506;5.492;2023-10-19T15:34:59;18.60;75.30
81311;DHT22;70779;52.506;5.492;2023-10-19T15:37:25;18.50;75.20
81311;DHT22;70779;52.506;5.492;2023-10-19T15:39:51;18.50;75.10
81311;DHT22;70779;52.506;5.492;2023-10-19T15:42:18;18.40;75.20
81311;DHT22;70779;52.506;5.492;2023-10-19T15:44:45;18.40;75.30
81311;DHT22;70779;52.506;5.492;2023-10-19T15:47:12;18.40;75.30
81311;DHT22;70779;52.506;5.492;2023-10-19T15:49:49;18.30;75.30
81311;DHT22;70779;52.506;5.492;2023-10-19T15:52:20;18.30;75.40
81311;DHT22;70779;52.506;5.492;2023-10-19T15:54:46;18.20;75.50
81311;DHT22;70779;52.506;5.492;2023-10-19T15:57:13;18.20;75.60
81311;DHT22;70779;52.506;5.492;2023-10-19T15:59:39;18.20;75.60
81311;DHT22;70779;52.506;5.492;2023-10-19T16:02:05;18.20;75.70
81311;DHT22;70779;52.506;5.492;2023-10-19T16:04:31;18.10;75.70
81311;DHT22;70779;52.506;5.492;2023-10-19T16:06:57;18.10;75.80
81311;DHT22;70779;52.506;5.492;2023-10-19T16:09:23;18.10;75.90
81311;DHT22;70779;52.506;5.492;2023-10-19T16:11:50;18.00;75.90
81311;DHT22;70779;52.506;5.492;2023-10-19T16:14:17;18.00;75.90
81311;DHT22;70779;52.506;5.492;2023-10-19T16:16:47;18.00;75.90
81311;DHT22;70779;52.506;5.492;2023-10-19T16:19:16;18.00;76.00
81311;DHT22;70779;52.506;5.492;2023-10-19T16:21:43;17.90;76.00
81311;DHT22;70779;52.506;5.492;2023-10-19T16:24:10;17.80;76.10
81311;DHT22;70779;52.506;5.492;2023-10-19T16:26:38;17.80;76.10
81311;DHT22;70779;52.506;5.492;2023-10-19T16:29:05;17.80;76.10
81311;DHT22;70779;52.506;5.492;2023-10-19T16:31:34;17.80;76.20
81311;DHT22;70779;52.506;5.492;2023-10-19T16:34:00;17.80;76.10
81311;DHT22;70779;52.506;5.492;2023-10-19T16:36:26;17.80;76.20
81311;DHT22;70779;52.506;5.492;2023-10-19T16:38:52;17.80;76.20
81311;DHT22;70779;52.506;5.492;2023-10-19T16:41:18;17.80;76.20
81311;DHT22;70779;52.506;5.492;2023-10-19T16:43:46;17.70;76.20
81311;DHT22;70779;52.506;5.492;2023-10-19T16:46:12;17.70;76.20
81311;DHT22;70779;52.506;5.492;2023-10-19T16:48:39;17.60;76.20
81311;DHT22;70779;52.506;5.492;2023-10-19T16:51:05;17.60;76.10
81311;DHT22;70779;52.506;5.492;2023-10-19T16:53:32;17.60;76.10
81311;DHT22;70779;52.506;5.492;2023-10-19T16:56:04;17.60;76.10
81311;DHT22;70779;52.506;5.492;2023-10-19T16:58:30;17.60;76.10
81311;DHT22;70779;52.506;5.492;2023-10-19T17:00:57;17.50;76.10
81311;DHT22;70779;52.506;5.492;2023-10-19T17:03:23;17.50;76.20
81311;DHT22;70779;52.506;5.492;2023-10-19T17:05:51;17.50;76.20
81311;DHT22;70779;52.506;5.492;2023-10-19T17:08:17;17.50;76.10
81311;DHT22;70779;52.506;5.492;2023-10-19T17:10:45;17.50;76.10
81311;DHT22;70779;52.506;5.492;2023-10-19T17:13:11;17.50;76.00
81311;DHT22;70779;52.506;5.492;2023-10-19T17:15:37;17.50;75.90
81311;DHT22;70779;52.506;5.492;2023-10-19T17:18:03;17.50;76.00
81311;DHT22;70779;52.506;5.492;2023-10-19T17:20:31;17.40;76.10
81311;DHT22;70779;52.506;5.492;2023-10-19T17:22:57;17.40;76.10
81311;DHT22;70779;52.506;5.492;2023-10-19T17:25:24;17.40;76.20
81311;DHT22;70779;52.506;5.492;2023-10-19T17:27:50;17.50;76.20
81311;DHT22;70779;52.506;5.492;2023-10-19T17:30:16;17.50;76.20
81311;DHT22;70779;52.506;5.492;2023-10-19T17:32:43;17.50;76.20
81311;DHT22;70779;52.506;5.492;2023-10-19T17:35:09;17.50;76.20
81311;DHT22;70779;52.506;5.492;2023-10-19T17:37:35;17.50;76.10
81311;DHT22;70779;52.506;5.492;2023-10-19T17:40:02;17.50;76.10
81311;DHT22;70779;52.506;5.492;2023-10-19T17:42:30;17.50;76.00
81311;DHT22;70779;52.506;5.492;2023-10-19T17:44:57;17.50;76.10
81311;DHT22;70779;52.506;5.492;2023-10-19T17:47:23;17.50;76.10
81311;DHT22;70779;52.506;5.492;2023-10-19T17:49:51;17.50;76.10
81311;DHT22;70779;52.506;5.492;2023-10-19T17:52:17;17.50;76.10
81311;DHT22;70779;52.506;5.492;2023-10-19T17:54:43;17.50;76.00
81311;DHT22;70779;52.506;5.492;2023-10-19T17:57:14;17.50;75.90
81311;DHT22;70779;52.506;5.492;2023-10-19T17:59:43;17.50;75.90
81311;DHT22;70779;52.506;5.492;2023-10-19T18:02:09;17.50;75.80
81311;DHT22;70779;52.506;5.492;2023-10-19T18:04:40;17.50;76.00
81311;DHT22;70779;52.506;5.492;2023-10-19T18:07:09;17.50;76.00
81311;DHT22;70779;52.506;5.492;2023-10-19T18:09:35;17.50;76.00
81311;DHT22;70779;52.506;5.492;2023-10-19T18:12:05;17.50;76.00
81311;DHT22;70779;52.506;5.492;2023-10-19T18:14:31;17.50;75.90
81311;DHT22;70779;52.506;5.492;2023-10-19T18:16:57;17.50;75.80
81311;DHT22;70779;52.506;5.492;2023-10-19T18:19:23;17.50;75.70
81311;DHT22;70779;52.506;5.492;2023-10-19T18:21:49;17.50;75.70
81311;DHT22;70779;52.506;5.492;2023-10-19T18:24:20;17.60;75.90
81311;DHT22;70779;52.506;5.492;2023-10-19T18:26:46;17.60;75.80
81311;DHT22;70779;52.506;5.492;2023-10-19T18:29:13;17.60;75.80
81311;DHT22;70779;52.506;5.492;2023-10-19T18:31:39;17.60;75.70
81311;DHT22;70779;52.506;5.492;2023-10-19T18:34:05;17.60;75.70
81311;DHT22;70779;52.506;5.492;2023-10-19T18:36:31;17.60;75.70
81311;DHT22;70779;52.506;5.492;2023-10-19T18:39:00;17.60;75.70
81311;DHT22;70779;52.506;5.492;2023-10-19T18:41:26;17.60;75.70
81311;DHT22;70779;52.506;5.492;2023-10-19T18:43:52;17.60;75.50
81311;DHT22;70779;52.506;5.492;2023-10-19T18:46:20;17.60;75.30
81311;DHT22;70779;52.506;5.492;2023-10-19T18:48:46;17.60;75.20
81311;DHT22;70779;52.506;5.492;2023-10-19T18:51:12;17.50;75.20
81311;DHT22;70779;52.506;5.492;2023-10-19T18:53:38;17.50;75.20
81311;DHT22;70779;52.506;5.492;2023-10-19T18:56:05;17.50;75.20
81311;DHT22;70779;52.506;5.492;2023-10-19T18:58:32;17.40;75.20
81311;DHT22;70779;52.506;5.492;2023-10-19T19:01:00;17.30;75.30
81311;DHT22;70779;52.506;5.492;2023-10-19T19:03:29;17.20;75.40
81311;DHT22;70779;52.506;5.492;2023-10-19T19:05:56;17.20;75.50
81311;DHT22;70779;52.506;5.492;2023-10-19T19:08:27;17.20;75.50
81311;DHT22;70779;52.506;5.492;2023-10-19T19:10:54;17.10;75.70
81311;DHT22;70779;52.506;5.492;2023-10-19T19:13:21;17.00;75.70
81311;DHT22;70779;52.506;5.492;2023-10-19T19:15:51;17.00;75.70
81311;DHT22;70779;52.506;5.492;2023-10-19T19:18:18;17.00;75.90
81311;DHT22;70779;52.506;5.492;2023-10-19T19:20:45;17.00;75.90
81311;DHT22;70779;52.506;5.492;2023-10-19T19:23:12;17.00;76.00
81311;DHT22;70779;52.506;5.492;2023-10-19T19:25:38;17.00;76.00
81311;DHT22;70779;52.506;5.492;2023-10-19T19:28:06;17.00;76.00
81311;DHT22;70779;52.506;5.492;2023-10-19T19:30:37;17.00;76.10
81311;DHT22;70779;52.506;5.492;2023-10-19T19:33:05;17.00;76.10
81311;DHT22;70779;52.506;5.492;2023-10-19T19:35:34;17.00;76.00
81311;DHT22;70779;52.506;5.492;2023-10-19T19:38:00;17.00;75.80
81311;DHT22;70779;52.506;5.492;2023-10-19T19:40:27;17.00;75.80
81311;DHT22;70779;52.506;5.492;2023-10-19T19:42:56;17.00;75.70
81311;DHT22;70779;52.506;5.492;2023-10-19T19:45:23;17.00;75.90
81311;DHT22;70779;52.506;5.492;2023-10-19T19:47:51;17.00;75.90
81311;DHT22;70779;52.506;5.492;2023-10-19T19:50:18;17.00;75.70
81311;DHT22;70779;52.506;5.492;2023-10-19T19:52:44;17.00;75.70
81311;DHT22;70779;52.506;5.492;2023-10-19T19:55:10;17.00;75.70
81311;DHT22;70779;52.506;5.492;2023-10-19T19:57:42;17.00;75.60
